sensor_id;sensor_type;location;lat;lon;timestamp;P1;durP1;ratioP1;P2;durP2;ratioP2
38123;SDS011;23934;47.998;9.832;2023-06-19T00:00:18;13.57;;;7.88;;
38123;SDS011;23934;47.998;9.832;2023-06-19T00:02:44;16.55;;;7.15;;
38123;SDS011;23934;47.998;9.832;2023-06-19T00:05:10;12.55;;;7.45;;
38123;SDS011;23934;47.998;9.832;2023-06-19T00:07:36;14.27;;;7.68;;
38123;SDS011;23934;47.998;9.832;2023-06-19T00:10:02;13.00;;;7.60;;
38123;SDS011;23934;47.998;9.832;2023-06-19T00:12:28;11.70;;;7.10;;
38123;SDS011;23934;47.998;9.832;2023-06-19T00:14:54;14.18;;;7.18;;
38123;SDS011;23934;47.998;9.832;2023-06-19T00:17:20;13.88;;;7.07;;
38123;SDS011;23934;47.998;9.832;2023-06-19T00:19:46;19.60;;;7.82;;
38123;SDS011;23934;47.998;9.832;2023-06-19T00:22:13;16.00;;;8.02;;
38123;SDS011;23934;47.998;9.832;2023-06-19T00:24:40;13.95;;;7.53;;
38123;SDS011;23934;47.998;9.832;2023-06-19T00:27:06;16.83;;;8.00;;
38123;SDS011;23934;47.998;9.832;2023-06-19T00:29:32;13.93;;;7.50;;
38123;SDS011;23934;47.998;9.832;2023-06-19T00:31:58;14.20;;;7.50;;
38123;SDS011;23934;47.998;9.832;2023-06-19T00:34:24;14.95;;;7.60;;
38123;SDS011;23934;47.998;9.832;2023-06-19T00:36:51;16.67;;;7.45;;
38123;SDS011;23934;47.998;9.832;2023-06-19T00:39:21;15.68;;;7.82;;
38123;SDS011;23934;47.998;9.832;2023-06-19T00:41:47;12.48;;;6.60;;
38123;SDS011;23934;47.998;9.832;2023-06-19T00:44:13;15.48;;;7.43;;
38123;SDS011;23934;47.998;9.832;2023-06-19T00:46:40;19.25;;;9.25;;
38123;SDS011;23934;47.998;9.832;2023-06-19T00:49:09;18.65;;;8.48;;
38123;SDS011;23934;47.998;9.832;2023-06-19T00:51:35;16.83;;;8.48;;
38123;SDS011;23934;47.998;9.832;2023-06-19T00:54:01;15.65;;;8.10;;
38123;SDS011;23934;47.998;9.832;2023-06-19T00:56:27;13.18;;;7.53;;
38123;SDS011;23934;47.998;9.832;2023-06-19T00:58:53;14.90;;;7.53;;
38123;SDS011;23934;47.998;9.832;2023-06-19T01:01:21;13.57;;;7.40;;
38123;SDS011;23934;47.998;9.832;2023-06-19T01:03:48;13.70;;;7.20;;
38123;SDS011;23934;47.998;9.832;2023-06-19T01:06:22;16.63;;;7.78;;
38123;SDS011;23934;47.998;9.832;2023-06-19T01:11:18;18.58;;;7.90;;
38123;SDS011;23934;47.998;9.832;2023-06-19T01:13:47;12.95;;;7.18;;
38123;SDS011;23934;47.998;9.832;2023-06-19T01:16:14;13.32;;;7.07;;
38123;SDS011;23934;47.998;9.832;2023-06-19T01:18:41;15.38;;;6.82;;
38123;SDS011;23934;47.998;9.832;2023-06-19T01:21:14;12.57;;;7.15;;
38123;SDS011;23934;47.998;9.832;2023-06-19T01:23:41;11.98;;;7.10;;
38123;SDS011;23934;47.998;9.832;2023-06-19T01:26:07;17.65;;;7.88;;
38123;SDS011;23934;47.998;9.832;2023-06-19T01:28:34;20.17;;;7.53;;
38123;SDS011;23934;47.998;9.832;2023-06-19T01:31:02;15.57;;;8.10;;
38123;SDS011;23934;47.998;9.832;2023-06-19T01:33:29;15.95;;;7.43;;
38123;SDS011;23934;47.998;9.832;2023-06-19T01:35:56;15.35;;;7.43;;
38123;SDS011;23934;47.998;9.832;2023-06-19T01:38:24;15.45;;;7.53;;
38123;SDS011;23934;47.998;9.832;2023-06-19T01:40:52;15.10;;;7.43;;
38123;SDS011;23934;47.998;9.832;2023-06-19T01:43:18;14.38;;;7.70;;
38123;SDS011;23934;47.998;9.832;2023-06-19T01:45:45;12.05;;;7.28;;
38123;SDS011;23934;47.998;9.832;2023-06-19T01:48:11;15.70;;;7.50;;
38123;SDS011;23934;47.998;9.832;2023-06-19T01:50:37;14.23;;;7.20;;
38123;SDS011;23934;47.998;9.832;2023-06-19T01:53:03;11.48;;;7.32;;
38123;SDS011;23934;47.998;9.832;2023-06-19T01:55:28;13.82;;;7.70;;
38123;SDS011;23934;47.998;9.832;2023-06-19T01:57:55;22.17;;;7.72;;
38123;SDS011;23934;47.998;9.832;2023-06-19T02:00:21;17.10;;;7.35;;
38123;SDS011;23934;47.998;9.832;2023-06-19T02:02:47;15.52;;;8.10;;
38123;SDS011;23934;47.998;9.832;2023-06-19T02:05:13;18.85;;;8.48;;
38123;SDS011;23934;47.998;9.832;2023-06-19T02:07:40;18.40;;;8.73;;
38123;SDS011;23934;47.998;9.832;2023-06-19T02:10:06;15.27;;;8.70;;
38123;SDS011;23934;47.998;9.832;2023-06-19T02:12:33;11.18;;;6.32;;
38123;SDS011;23934;47.998;9.832;2023-06-19T02:14:59;17.60;;;7.65;;
38123;SDS011;23934;47.998;9.832;2023-06-19T02:17:25;14.32;;;7.50;;
38123;SDS011;23934;47.998;9.832;2023-06-19T02:19:51;13.13;;;7.38;;
38123;SDS011;23934;47.998;9.832;2023-06-19T02:22:17;14.75;;;7.43;;
38123;SDS011;23934;47.998;9.832;2023-06-19T02:24:43;15.55;;;8.05;;
38123;SDS011;23934;47.998;9.832;2023-06-19T02:27:09;16.52;;;8.48;;
38123;SDS011;23934;47.998;9.832;2023-06-19T02:29:35;17.92;;;7.57;;
38123;SDS011;23934;47.998;9.832;2023-06-19T02:32:02;15.38;;;8.07;;
38123;SDS011;23934;47.998;9.832;2023-06-19T02:34:28;15.85;;;7.78;;
38123;SDS011;23934;47.998;9.832;2023-06-19T02:36:54;13.23;;;7.93;;
38123;SDS011;23934;47.998;9.832;2023-06-19T02:39:20;15.38;;;8.40;;
38123;SDS011;23934;47.998;9.832;2023-06-19T02:41:46;17.65;;;8.48;;
38123;SDS011;23934;47.998;9.832;2023-06-19T02:44:12;14.07;;;7.45;;
38123;SDS011;23934;47.998;9.832;2023-06-19T02:46:39;14.80;;;7.25;;
38123;SDS011;23934;47.998;9.832;2023-06-19T02:49:05;14.05;;;7.85;;
38123;SDS011;23934;47.998;9.832;2023-06-19T02:51:30;10.82;;;6.45;;
38123;SDS011;23934;47.998;9.832;2023-06-19T02:53:56;13.85;;;7.30;;
38123;SDS011;23934;47.998;9.832;2023-06-19T02:56:23;13.63;;;7.88;;
38123;SDS011;23934;47.998;9.832;2023-06-19T02:58:49;20.05;;;7.53;;
38123;SDS011;23934;47.998;9.832;2023-06-19T03:01:15;22.42;;;8.15;;
38123;SDS011;23934;47.998;9.832;2023-06-19T03:03:42;16.13;;;8.02;;
38123;SDS011;23934;47.998;9.832;2023-06-19T03:06:08;15.77;;;7.70;;
38123;SDS011;23934;47.998;9.832;2023-06-19T03:08:34;15.88;;;8.07;;
38123;SDS011;23934;47.998;9.832;2023-06-19T03:11:01;15.70;;;7.80;;
38123;SDS011;23934;47.998;9.832;2023-06-19T03:13:29;15.95;;;8.27;;
38123;SDS011;23934;47.998;9.832;2023-06-19T03:15:55;14.60;;;7.75;;
38123;SDS011;23934;47.998;9.832;2023-06-19T03:18:21;15.02;;;7.68;;
38123;SDS011;23934;47.998;9.832;2023-06-19T03:20:47;14.90;;;8.07;;
38123;SDS011;23934;47.998;9.832;2023-06-19T03:23:13;14.32;;;7.30;;
38123;SDS011;23934;47.998;9.832;2023-06-19T03:25:39;15.23;;;7.50;;
38123;SDS011;23934;47.998;9.832;2023-06-19T03:28:07;15.75;;;7.97;;
38123;SDS011;23934;47.998;9.832;2023-06-19T03:30:33;15.23;;;8.35;;
38123;SDS011;23934;47.998;9.832;2023-06-19T03:32:59;16.10;;;7.78;;
38123;SDS011;23934;47.998;9.832;2023-06-19T03:35:25;13.63;;;7.15;;
38123;SDS011;23934;47.998;9.832;2023-06-19T03:37:51;17.25;;;8.52;;
38123;SDS011;23934;47.998;9.832;2023-06-19T03:40:17;14.73;;;7.82;;
38123;SDS011;23934;47.998;9.832;2023-06-19T03:42:43;17.67;;;9.32;;
38123;SDS011;23934;47.998;9.832;2023-06-19T03:45:09;15.90;;;8.38;;
38123;SDS011;23934;47.998;9.832;2023-06-19T03:47:35;16.48;;;9.05;;
38123;SDS011;23934;47.998;9.832;2023-06-19T03:50:01;16.65;;;8.77;;
38123;SDS011;23934;47.998;9.832;2023-06-19T03:52:27;15.05;;;8.40;;
38123;SDS011;23934;47.998;9.832;2023-06-19T03:54:53;21.27;;;8.55;;
38123;SDS011;23934;47.998;9.832;2023-06-19T03:57:19;19.23;;;8.73;;
38123;SDS011;23934;47.998;9.832;2023-06-19T03:59:45;19.77;;;8.55;;
38123;SDS011;23934;47.998;9.832;2023-06-19T04:02:12;15.60;;;8.70;;
38123;SDS011;23934;47.998;9.832;2023-06-19T04:04:38;13.90;;;7.93;;
38123;SDS011;23934;47.998;9.832;2023-06-19T04:07:04;16.90;;;8.23;;
38123;SDS011;23934;47.998;9.832;2023-06-19T04:09:30;17.17;;;8.80;;
38123;SDS011;23934;47.998;9.832;2023-06-19T04:11:56;14.70;;;8.60;;
38123;SDS011;23934;47.998;9.832;2023-06-19T04:14:21;15.77;;;8.40;;
38123;SDS011;23934;47.998;9.832;2023-06-19T04:16:48;19.25;;;8.77;;
38123;SDS011;23934;47.998;9.832;2023-06-19T04:19:14;21.17;;;8.65;;
38123;SDS011;23934;47.998;9.832;2023-06-19T04:21:40;17.33;;;8.98;;
38123;SDS011;23934;47.998;9.832;2023-06-19T04:24:06;17.85;;;8.35;;
38123;SDS011;23934;47.998;9.832;2023-06-19T04:26:34;13.57;;;7.80;;
38123;SDS011;23934;47.998;9.832;2023-06-19T04:29:01;14.95;;;8.20;;
38123;SDS011;23934;47.998;9.832;2023-06-19T04:31:27;16.95;;;8.40;;
38123;SDS011;23934;47.998;9.832;2023-06-19T04:33:53;13.48;;;7.25;;
38123;SDS011;23934;47.998;9.832;2023-06-19T04:36:21;16.98;;;8.25;;
38123;SDS011;23934;47.998;9.832;2023-06-19T04:38:47;19.58;;;8.45;;
38123;SDS011;23934;47.998;9.832;2023-06-19T04:41:13;20.08;;;8.30;;
38123;SDS011;23934;47.998;9.832;2023-06-19T04:43:39;15.05;;;7.93;;
38123;SDS011;23934;47.998;9.832;2023-06-19T04:46:06;23.85;;;8.20;;
38123;SDS011;23934;47.998;9.832;2023-06-19T04:48:32;14.00;;;8.05;;
38123;SDS011;23934;47.998;9.832;2023-06-19T04:51:00;13.10;;;7.68;;
38123;SDS011;23934;47.998;9.832;2023-06-19T04:53:27;13.43;;;7.55;;
38123;SDS011;23934;47.998;9.832;2023-06-19T04:55:53;17.90;;;8.02;;
38123;SDS011;23934;47.998;9.832;2023-06-19T04:58:20;15.20;;;8.10;;
38123;SDS011;23934;47.998;9.832;2023-06-19T05:00:46;14.73;;;7.07;;
38123;SDS011;23934;47.998;9.832;2023-06-19T05:03:16;13.25;;;7.35;;
38123;SDS011;23934;47.998;9.832;2023-06-19T05:05:43;13.40;;;7.20;;
38123;SDS011;23934;47.998;9.832;2023-06-19T05:08:09;12.82;;;7.53;;
38123;SDS011;23934;47.998;9.832;2023-06-19T05:10:35;15.10;;;8.00;;
38123;SDS011;23934;47.998;9.832;2023-06-19T05:13:00;14.82;;;7.63;;
38123;SDS011;23934;47.998;9.832;2023-06-19T05:15:27;15.10;;;7.15;;
38123;SDS011;23934;47.998;9.832;2023-06-19T05:17:53;13.15;;;6.70;;
38123;SDS011;23934;47.998;9.832;2023-06-19T05:20:19;13.93;;;6.75;;
38123;SDS011;23934;47.998;9.832;2023-06-19T05:22:45;13.00;;;6.85;;
38123;SDS011;23934;47.998;9.832;2023-06-19T05:25:11;13.63;;;6.63;;
38123;SDS011;23934;47.998;9.832;2023-06-19T05:27:37;12.35;;;5.68;;
38123;SDS011;23934;47.998;9.832;2023-06-19T05:30:03;10.70;;;5.68;;
38123;SDS011;23934;47.998;9.832;2023-06-19T05:32:30;13.43;;;7.20;;
38123;SDS011;23934;47.998;9.832;2023-06-19T05:34:55;11.80;;;6.88;;
38123;SDS011;23934;47.998;9.832;2023-06-19T05:37:21;11.75;;;6.43;;
38123;SDS011;23934;47.998;9.832;2023-06-19T05:39:48;13.90;;;7.13;;
38123;SDS011;23934;47.998;9.832;2023-06-19T05:42:14;12.15;;;6.53;;
38123;SDS011;23934;47.998;9.832;2023-06-19T05:44:40;14.70;;;7.65;;
38123;SDS011;23934;47.998;9.832;2023-06-19T05:47:06;18.38;;;7.65;;
38123;SDS011;23934;47.998;9.832;2023-06-19T05:49:32;18.70;;;8.13;;
38123;SDS011;23934;47.998;9.832;2023-06-19T05:51:58;14.55;;;7.18;;
38123;SDS011;23934;47.998;9.832;2023-06-19T05:54:24;15.85;;;7.50;;
38123;SDS011;23934;47.998;9.832;2023-06-19T05:56:50;12.82;;;6.57;;
38123;SDS011;23934;47.998;9.832;2023-06-19T05:59:16;16.85;;;7.20;;
38123;SDS011;23934;47.998;9.832;2023-06-19T06:01:42;13.52;;;6.95;;
38123;SDS011;23934;47.998;9.832;2023-06-19T06:04:09;18.33;;;6.57;;
38123;SDS011;23934;47.998;9.832;2023-06-19T06:06:35;12.77;;;7.35;;
38123;SDS011;23934;47.998;9.832;2023-06-19T06:09:01;9.75;;;6.18;;
38123;SDS011;23934;47.998;9.832;2023-06-19T06:11:27;19.08;;;5.63;;
38123;SDS011;23934;47.998;9.832;2023-06-19T06:13:53;15.45;;;6.38;;
38123;SDS011;23934;47.998;9.832;2023-06-19T06:16:19;12.90;;;6.40;;
38123;SDS011;23934;47.998;9.832;2023-06-19T06:18:45;13.90;;;5.95;;
38123;SDS011;23934;47.998;9.832;2023-06-19T06:21:11;10.45;;;5.10;;
38123;SDS011;23934;47.998;9.832;2023-06-19T06:23:38;9.07;;;4.30;;
38123;SDS011;23934;47.998;9.832;2023-06-19T06:26:04;12.40;;;5.18;;
38123;SDS011;23934;47.998;9.832;2023-06-19T06:28:30;8.10;;;4.63;;
38123;SDS011;23934;47.998;9.832;2023-06-19T06:30:56;10.40;;;5.28;;
38123;SDS011;23934;47.998;9.832;2023-06-19T06:33:23;9.63;;;5.25;;
38123;SDS011;23934;47.998;9.832;2023-06-19T06:35:49;10.98;;;6.28;;
38123;SDS011;23934;47.998;9.832;2023-06-19T06:38:16;11.15;;;5.75;;
38123;SDS011;23934;47.998;9.832;2023-06-19T06:40:42;12.07;;;6.10;;
38123;SDS011;23934;47.998;9.832;2023-06-19T06:43:08;12.07;;;4.85;;
38123;SDS011;23934;47.998;9.832;2023-06-19T06:45:34;9.45;;;5.18;;
38123;SDS011;23934;47.998;9.832;2023-06-19T06:48:02;11.98;;;5.38;;
38123;SDS011;23934;47.998;9.832;2023-06-19T06:50:28;8.23;;;5.22;;
38123;SDS011;23934;47.998;9.832;2023-06-19T06:52:57;14.88;;;4.70;;
38123;SDS011;23934;47.998;9.832;2023-06-19T06:55:22;9.98;;;5.20;;
38123;SDS011;23934;47.998;9.832;2023-06-19T06:57:49;9.43;;;5.20;;
38123;SDS011;23934;47.998;9.832;2023-06-19T07:00:15;11.57;;;4.63;;
38123;SDS011;23934;47.998;9.832;2023-06-19T07:02:43;9.52;;;5.45;;
38123;SDS011;23934;47.998;9.832;2023-06-19T07:05:11;9.00;;;4.40;;
38123;SDS011;23934;47.998;9.832;2023-06-19T07:07:37;9.73;;;5.13;;
38123;SDS011;23934;47.998;9.832;2023-06-19T07:10:03;8.60;;;4.25;;
38123;SDS011;23934;47.998;9.832;2023-06-19T07:12:29;28.55;;;5.75;;
38123;SDS011;23934;47.998;9.832;2023-06-19T07:14:55;12.95;;;6.05;;
38123;SDS011;23934;47.998;9.832;2023-06-19T07:17:21;8.70;;;5.35;;
38123;SDS011;23934;47.998;9.832;2023-06-19T07:19:47;7.32;;;4.55;;
38123;SDS011;23934;47.998;9.832;2023-06-19T07:22:13;10.65;;;5.93;;
38123;SDS011;23934;47.998;9.832;2023-06-19T07:24:40;14.68;;;6.45;;
38123;SDS011;23934;47.998;9.832;2023-06-19T07:27:06;13.35;;;6.22;;
38123;SDS011;23934;47.998;9.832;2023-06-19T07:29:32;14.23;;;6.63;;
38123;SDS011;23934;47.998;9.832;2023-06-19T07:31:58;14.27;;;7.05;;
38123;SDS011;23934;47.998;9.832;2023-06-19T07:34:27;12.00;;;5.97;;
38123;SDS011;23934;47.998;9.832;2023-06-19T07:36:53;13.57;;;6.47;;
38123;SDS011;23934;47.998;9.832;2023-06-19T07:39:19;16.77;;;6.63;;
38123;SDS011;23934;47.998;9.832;2023-06-19T07:41:45;11.40;;;6.20;;
38123;SDS011;23934;47.998;9.832;2023-06-19T07:44:11;21.52;;;7.15;;
38123;SDS011;23934;47.998;9.832;2023-06-19T07:46:37;11.43;;;6.07;;
38123;SDS011;23934;47.998;9.832;2023-06-19T07:49:03;10.88;;;5.63;;
38123;SDS011;23934;47.998;9.832;2023-06-19T07:51:29;12.88;;;6.38;;
38123;SDS011;23934;47.998;9.832;2023-06-19T07:53:55;12.98;;;6.75;;
38123;SDS011;23934;47.998;9.832;2023-06-19T07:56:21;19.20;;;7.50;;
38123;SDS011;23934;47.998;9.832;2023-06-19T07:58:47;14.07;;;6.80;;
38123;SDS011;23934;47.998;9.832;2023-06-19T08:01:13;14.55;;;6.57;;
38123;SDS011;23934;47.998;9.832;2023-06-19T08:03:39;16.38;;;7.55;;
38123;SDS011;23934;47.998;9.832;2023-06-19T08:06:05;13.65;;;6.68;;
38123;SDS011;23934;47.998;9.832;2023-06-19T08:08:31;15.02;;;6.78;;
38123;SDS011;23934;47.998;9.832;2023-06-19T08:10:57;17.77;;;7.43;;
38123;SDS011;23934;47.998;9.832;2023-06-19T08:13:23;11.57;;;6.50;;
38123;SDS011;23934;47.998;9.832;2023-06-19T08:15:49;12.38;;;7.15;;
38123;SDS011;23934;47.998;9.832;2023-06-19T08:18:14;14.32;;;7.32;;
38123;SDS011;23934;47.998;9.832;2023-06-19T08:20:40;14.02;;;6.65;;
38123;SDS011;23934;47.998;9.832;2023-06-19T08:23:06;15.23;;;6.78;;
38123;SDS011;23934;47.998;9.832;2023-06-19T08:25:32;12.20;;;6.05;;
38123;SDS011;23934;47.998;9.832;2023-06-19T08:27:58;18.55;;;6.63;;
38123;SDS011;23934;47.998;9.832;2023-06-19T08:30:25;11.77;;;6.20;;
38123;SDS011;23934;47.998;9.832;2023-06-19T08:32:51;16.05;;;6.47;;
38123;SDS011;23934;47.998;9.832;2023-06-19T08:35:17;12.18;;;6.15;;
38123;SDS011;23934;47.998;9.832;2023-06-19T08:37:43;8.98;;;5.25;;
38123;SDS011;23934;47.998;9.832;2023-06-19T08:40:09;17.70;;;5.47;;
38123;SDS011;23934;47.998;9.832;2023-06-19T08:42:36;13.07;;;7.32;;
38123;SDS011;23934;47.998;9.832;2023-06-19T08:45:02;13.30;;;5.85;;
38123;SDS011;23934;47.998;9.832;2023-06-19T08:47:29;10.90;;;5.80;;
38123;SDS011;23934;47.998;9.832;2023-06-19T08:49:55;7.72;;;4.78;;
38123;SDS011;23934;47.998;9.832;2023-06-19T08:52:21;10.07;;;4.85;;
38123;SDS011;23934;47.998;9.832;2023-06-19T08:54:47;8.80;;;4.68;;
38123;SDS011;23934;47.998;9.832;2023-06-19T08:57:13;8.65;;;4.82;;
38123;SDS011;23934;47.998;9.832;2023-06-19T08:59:40;7.38;;;4.00;;
38123;SDS011;23934;47.998;9.832;2023-06-19T09:02:06;7.80;;;4.32;;
38123;SDS011;23934;47.998;9.832;2023-06-19T09:04:32;7.38;;;4.28;;
38123;SDS011;23934;47.998;9.832;2023-06-19T09:06:59;7.07;;;4.85;;
38123;SDS011;23934;47.998;9.832;2023-06-19T09:09:27;7.25;;;4.47;;
38123;SDS011;23934;47.998;9.832;2023-06-19T09:11:57;7.50;;;4.95;;
38123;SDS011;23934;47.998;9.832;2023-06-19T09:14:24;10.50;;;5.13;;
38123;SDS011;23934;47.998;9.832;2023-06-19T09:16:50;8.55;;;4.82;;
38123;SDS011;23934;47.998;9.832;2023-06-19T09:19:20;6.85;;;4.40;;
38123;SDS011;23934;47.998;9.832;2023-06-19T09:21:46;7.18;;;4.40;;
38123;SDS011;23934;47.998;9.832;2023-06-19T09:24:12;10.13;;;5.05;;
38123;SDS011;23934;47.998;9.832;2023-06-19T09:26:38;8.45;;;4.47;;
38123;SDS011;23934;47.998;9.832;2023-06-19T09:29:10;6.75;;;4.38;;
38123;SDS011;23934;47.998;9.832;2023-06-19T09:31:36;8.60;;;4.03;;
38123;SDS011;23934;47.998;9.832;2023-06-19T09:34:04;7.03;;;4.45;;
38123;SDS011;23934;47.998;9.832;2023-06-19T09:36:31;7.65;;;3.70;;
38123;SDS011;23934;47.998;9.832;2023-06-19T09:38:59;7.03;;;3.88;;
38123;SDS011;23934;47.998;9.832;2023-06-19T09:41:25;7.00;;;4.13;;
38123;SDS011;23934;47.998;9.832;2023-06-19T09:43:53;5.43;;;3.60;;
38123;SDS011;23934;47.998;9.832;2023-06-19T09:46:26;7.75;;;3.65;;
38123;SDS011;23934;47.998;9.832;2023-06-19T09:48:52;6.00;;;3.78;;
38123;SDS011;23934;47.998;9.832;2023-06-19T09:51:27;7.80;;;3.97;;
38123;SDS011;23934;47.998;9.832;2023-06-19T09:53:56;6.35;;;4.45;;
38123;SDS011;23934;47.998;9.832;2023-06-19T09:56:23;6.90;;;3.72;;
38123;SDS011;23934;47.998;9.832;2023-06-19T09:58:52;5.43;;;3.95;;
38123;SDS011;23934;47.998;9.832;2023-06-19T10:01:19;6.80;;;4.13;;
38123;SDS011;23934;47.998;9.832;2023-06-19T10:03:45;5.38;;;3.63;;
38123;SDS011;23934;47.998;9.832;2023-06-19T10:06:15;6.22;;;3.92;;
38123;SDS011;23934;47.998;9.832;2023-06-19T10:08:42;6.47;;;4.07;;
38123;SDS011;23934;47.998;9.832;2023-06-19T10:11:08;7.03;;;4.25;;
38123;SDS011;23934;47.998;9.832;2023-06-19T10:13:35;6.50;;;4.55;;
38123;SDS011;23934;47.998;9.832;2023-06-19T10:16:03;6.70;;;3.95;;
38123;SDS011;23934;47.998;9.832;2023-06-19T10:18:31;6.72;;;4.47;;
38123;SDS011;23934;47.998;9.832;2023-06-19T10:20:57;8.35;;;4.32;;
38123;SDS011;23934;47.998;9.832;2023-06-19T10:23:24;7.38;;;4.60;;
38123;SDS011;23934;47.998;9.832;2023-06-19T10:30:53;6.25;;;4.80;;
38123;SDS011;23934;47.998;9.832;2023-06-19T10:33:19;8.45;;;5.03;;
38123;SDS011;23934;47.998;9.832;2023-06-19T10:35:45;7.95;;;5.47;;
38123;SDS011;23934;47.998;9.832;2023-06-19T10:38:14;6.97;;;4.82;;
38123;SDS011;23934;47.998;9.832;2023-06-19T10:40:40;9.50;;;5.13;;
38123;SDS011;23934;47.998;9.832;2023-06-19T10:43:06;7.97;;;4.90;;
38123;SDS011;23934;47.998;9.832;2023-06-19T10:45:32;7.57;;;4.80;;
38123;SDS011;23934;47.998;9.832;2023-06-19T10:48:00;8.02;;;5.28;;
38123;SDS011;23934;47.998;9.832;2023-06-19T10:50:30;7.13;;;5.20;;
38123;SDS011;23934;47.998;9.832;2023-06-19T10:53:00;7.00;;;4.25;;
38123;SDS011;23934;47.998;9.832;2023-06-19T10:55:26;7.35;;;5.07;;
38123;SDS011;23934;47.998;9.832;2023-06-19T10:57:52;7.25;;;4.90;;
38123;SDS011;23934;47.998;9.832;2023-06-19T11:02:50;6.63;;;4.65;;
38123;SDS011;23934;47.998;9.832;2023-06-19T11:05:16;8.85;;;5.20;;
38123;SDS011;23934;47.998;9.832;2023-06-19T11:07:42;7.50;;;4.88;;
38123;SDS011;23934;47.998;9.832;2023-06-19T11:10:08;8.30;;;5.13;;
38123;SDS011;23934;47.998;9.832;2023-06-19T11:12:44;7.97;;;4.72;;
38123;SDS011;23934;47.998;9.832;2023-06-19T11:15:10;11.45;;;5.25;;
38123;SDS011;23934;47.998;9.832;2023-06-19T11:17:36;10.68;;;5.10;;
38123;SDS011;23934;47.998;9.832;2023-06-19T11:20:02;8.27;;;5.03;;
38123;SDS011;23934;47.998;9.832;2023-06-19T11:22:37;7.53;;;4.90;;
38123;SDS011;23934;47.998;9.832;2023-06-19T11:25:04;7.32;;;5.03;;
38123;SDS011;23934;47.998;9.832;2023-06-19T11:27:30;7.88;;;5.05;;
38123;SDS011;23934;47.998;9.832;2023-06-19T11:29:57;6.95;;;4.90;;
38123;SDS011;23934;47.998;9.832;2023-06-19T11:32:23;8.38;;;5.40;;
38123;SDS011;23934;47.998;9.832;2023-06-19T11:34:49;8.40;;;5.47;;
38123;SDS011;23934;47.998;9.832;2023-06-19T11:37:16;9.52;;;5.55;;
38123;SDS011;23934;47.998;9.832;2023-06-19T11:39:46;7.65;;;5.15;;
38123;SDS011;23934;47.998;9.832;2023-06-19T11:42:12;8.98;;;5.30;;
38123;SDS011;23934;47.998;9.832;2023-06-19T11:47:20;8.43;;;5.15;;
38123;SDS011;23934;47.998;9.832;2023-06-19T11:49:50;7.95;;;5.22;;
38123;SDS011;23934;47.998;9.832;2023-06-19T11:52:16;7.35;;;5.13;;
38123;SDS011;23934;47.998;9.832;2023-06-19T11:54:42;10.48;;;5.45;;
38123;SDS011;23934;47.998;9.832;2023-06-19T11:57:11;6.40;;;4.70;;
38123;SDS011;23934;47.998;9.832;2023-06-19T11:59:38;8.18;;;4.75;;
38123;SDS011;23934;47.998;9.832;2023-06-19T12:02:05;8.63;;;5.38;;
38123;SDS011;23934;47.998;9.832;2023-06-19T12:04:31;7.95;;;4.97;;
38123;SDS011;23934;47.998;9.832;2023-06-19T12:06:57;7.40;;;4.90;;
38123;SDS011;23934;47.998;9.832;2023-06-19T12:09:24;6.97;;;4.35;;
38123;SDS011;23934;47.998;9.832;2023-06-19T12:11:50;9.00;;;5.28;;
38123;SDS011;23934;47.998;9.832;2023-06-19T12:14:16;10.73;;;4.63;;
38123;SDS011;23934;47.998;9.832;2023-06-19T12:16:43;6.95;;;4.70;;
38123;SDS011;23934;47.998;9.832;2023-06-19T12:19:09;7.70;;;5.10;;
38123;SDS011;23934;47.998;9.832;2023-06-19T12:21:35;19.00;;;4.90;;
38123;SDS011;23934;47.998;9.832;2023-06-19T12:24:01;7.43;;;5.07;;
38123;SDS011;23934;47.998;9.832;2023-06-19T12:26:26;8.27;;;4.32;;
38123;SDS011;23934;47.998;9.832;2023-06-19T12:28:53;12.55;;;5.15;;
38123;SDS011;23934;47.998;9.832;2023-06-19T12:31:19;7.63;;;4.78;;
38123;SDS011;23934;47.998;9.832;2023-06-19T12:33:45;7.20;;;4.68;;
38123;SDS011;23934;47.998;9.832;2023-06-19T12:36:13;7.47;;;4.60;;
38123;SDS011;23934;47.998;9.832;2023-06-19T12:38:39;8.82;;;4.63;;
38123;SDS011;23934;47.998;9.832;2023-06-19T12:41:05;7.03;;;4.93;;
38123;SDS011;23934;47.998;9.832;2023-06-19T12:43:31;14.48;;;4.57;;
38123;SDS011;23934;47.998;9.832;2023-06-19T12:45:57;7.43;;;4.53;;
38123;SDS011;23934;47.998;9.832;2023-06-19T12:48:24;8.05;;;4.80;;
38123;SDS011;23934;47.998;9.832;2023-06-19T12:50:50;11.30;;;5.07;;
38123;SDS011;23934;47.998;9.832;2023-06-19T12:53:16;12.02;;;4.55;;
38123;SDS011;23934;47.998;9.832;2023-06-19T12:55:42;7.13;;;4.50;;
38123;SDS011;23934;47.998;9.832;2023-06-19T12:58:08;8.30;;;4.90;;
38123;SDS011;23934;47.998;9.832;2023-06-19T13:00:34;8.20;;;5.45;;
38123;SDS011;23934;47.998;9.832;2023-06-19T13:03:00;8.32;;;4.57;;
38123;SDS011;23934;47.998;9.832;2023-06-19T13:05:26;7.70;;;4.75;;
38123;SDS011;23934;47.998;9.832;2023-06-19T13:07:52;7.63;;;5.35;;
38123;SDS011;23934;47.998;9.832;2023-06-19T13:10:18;7.63;;;4.50;;
38123;SDS011;23934;47.998;9.832;2023-06-19T13:12:44;10.63;;;5.65;;
38123;SDS011;23934;47.998;9.832;2023-06-19T13:15:10;7.10;;;5.13;;
38123;SDS011;23934;47.998;9.832;2023-06-19T13:17:36;7.80;;;5.13;;
38123;SDS011;23934;47.998;9.832;2023-06-19T13:20:03;7.15;;;5.43;;
38123;SDS011;23934;47.998;9.832;2023-06-19T13:22:30;7.88;;;4.97;;
38123;SDS011;23934;47.998;9.832;2023-06-19T13:24:56;9.05;;;5.40;;
38123;SDS011;23934;47.998;9.832;2023-06-19T13:27:22;7.88;;;5.50;;
38123;SDS011;23934;47.998;9.832;2023-06-19T13:29:48;6.95;;;4.75;;
38123;SDS011;23934;47.998;9.832;2023-06-19T13:32:14;9.15;;;5.53;;
38123;SDS011;23934;47.998;9.832;2023-06-19T13:34:40;10.02;;;5.53;;
38123;SDS011;23934;47.998;9.832;2023-06-19T13:37:06;8.10;;;5.78;;
38123;SDS011;23934;47.998;9.832;2023-06-19T13:39:32;16.17;;;5.43;;
38123;SDS011;23934;47.998;9.832;2023-06-19T13:41:58;8.80;;;5.78;;
38123;SDS011;23934;47.998;9.832;2023-06-19T13:44:26;8.55;;;5.60;;
38123;SDS011;23934;47.998;9.832;2023-06-19T13:46:52;6.80;;;4.95;;
38123;SDS011;23934;47.998;9.832;2023-06-19T13:49:19;11.02;;;6.00;;
38123;SDS011;23934;47.998;9.832;2023-06-19T13:51:45;6.55;;;5.00;;
38123;SDS011;23934;47.998;9.832;2023-06-19T13:54:11;8.35;;;5.05;;
38123;SDS011;23934;47.998;9.832;2023-06-19T13:56:38;8.90;;;5.72;;
38123;SDS011;23934;47.998;9.832;2023-06-19T13:59:04;8.52;;;4.72;;
38123;SDS011;23934;47.998;9.832;2023-06-19T14:01:30;8.88;;;4.50;;
38123;SDS011;23934;47.998;9.832;2023-06-19T14:03:57;8.45;;;5.45;;
38123;SDS011;23934;47.998;9.832;2023-06-19T14:06:23;7.60;;;5.10;;
38123;SDS011;23934;47.998;9.832;2023-06-19T14:08:49;11.45;;;4.82;;
38123;SDS011;23934;47.998;9.832;2023-06-19T14:11:15;8.68;;;5.03;;
38123;SDS011;23934;47.998;9.832;2023-06-19T14:13:41;6.68;;;4.75;;
38123;SDS011;23934;47.998;9.832;2023-06-19T14:16:07;6.18;;;4.90;;
38123;SDS011;23934;47.998;9.832;2023-06-19T14:18:33;8.07;;;5.07;;
38123;SDS011;23934;47.998;9.832;2023-06-19T14:21:01;8.85;;;4.70;;
38123;SDS011;23934;47.998;9.832;2023-06-19T14:23:27;7.80;;;4.95;;
38123;SDS011;23934;47.998;9.832;2023-06-19T14:25:53;7.68;;;4.82;;
38123;SDS011;23934;47.998;9.832;2023-06-19T14:28:19;6.25;;;4.70;;
38123;SDS011;23934;47.998;9.832;2023-06-19T14:30:45;6.35;;;4.68;;
38123;SDS011;23934;47.998;9.832;2023-06-19T14:33:11;6.60;;;4.60;;
38123;SDS011;23934;47.998;9.832;2023-06-19T14:35:40;7.80;;;4.57;;
38123;SDS011;23934;47.998;9.832;2023-06-19T14:38:07;8.05;;;4.90;;
38123;SDS011;23934;47.998;9.832;2023-06-19T14:40:32;7.22;;;4.65;;
38123;SDS011;23934;47.998;9.832;2023-06-19T14:42:58;9.68;;;4.78;;
38123;SDS011;23934;47.998;9.832;2023-06-19T14:45:24;7.00;;;4.70;;
38123;SDS011;23934;47.998;9.832;2023-06-19T14:47:50;8.05;;;6.18;;